Time;durP1;ratioP1;P1;durP2;ratioP2;P2;SDS_P1;SDS_P2;PMS_P1;PMS_P2;Temp;Humidity;BMP_temperature;BMP_pressure;BME280_temperature;BME280_humidity;BME280_pressure;Samples;Min_cycle;Max_cycle;Signal;HPM_P1;HPM_P2
2022/07/09 00:02:12;;;;;;;15.80;12.65;;;;;;;13.87;100.00;159066.13;4992356;28;20409;-61
2022/07/09 00:04:37;;;;;;;16.67;11.95;;;;;;;13.84;100.00;157084.03;4995463;28;20030;-61
2022/07/09 00:07:03;;;;;;;17.20;11.48;;;;;;;13.84;100.00;155310.22;5011372;28;20130;-61
2022/07/09 00:09:28;;;;;;;13.38;10.55;;;;;;;13.84;100.00;153537.19;5008484;28;20049;-61
2022/07/09 00:11:54;;;;;;;10.15;8.70;;;;;;;13.82;100.00;153532.13;4992404;28;20030;-62
2022/07/09 00:14:19;;;;;;;76.13;8.52;;;;;;;13.80;100.00;154236.19;4991881;28;20033;-61
2022/07/09 00:16:44;;;;;;;112.88;8.93;;;;;;;13.75;100.00;155287.22;4990968;28;20042;-62
2022/07/09 00:19:10;;;;;;;52.35;7.13;;;;;;;13.70;100.00;157402.63;4992047;28;20080;-61
2022/07/09 00:21:35;;;;;;;130.60;9.13;;;;;;;13.63;100.00;159610.38;4990386;28;20031;-61
2022/07/09 00:24:00;;;;;;;52.28;5.95;;;;;;;13.56;100.00;161183.75;4992477;28;20026;-61
2022/07/09 00:26:26;;;;;;;200.63;11.90;;;;;;;13.49;100.00;162463.31;5010205;28;20096;-61
2022/07/09 00:28:51;;;;;;;177.60;11.95;;;;;;;13.42;100.00;162558.31;5010953;28;20045;-61
2022/07/09 00:31:17;;;;;;;4.57;4.18;;;;;;;13.38;100.00;161995.56;5010105;28;20521;-61
2022/07/09 00:33:42;;;;;;;5.70;5.18;;;;;;;13.35;100.00;160917.25;5011782;28;20099;-62
2022/07/09 00:36:07;;;;;;;24.08;7.53;;;;;;;13.33;100.00;159248.66;5009772;28;20042;-62
2022/07/09 00:38:33;;;;;;;6.78;6.18;;;;;;;13.32;100.00;157308.06;5011421;28;20033;-61
2022/07/09 00:40:58;;;;;;;61.88;9.43;;;;;;;13.30;100.00;156240.63;4991024;28;20046;-61
2022/07/09 00:43:24;;;;;;;41.80;6.40;;;;;;;13.29;100.00;155529.19;4991505;28;20053;-62
2022/07/09 00:45:49;;;;;;;128.93;12.23;;;;;;;13.26;100.00;155167.19;4989977;28;20078;-62
2022/07/09 00:48:15;;;;;;;180.75;13.70;;;;;;;13.23;100.00;155159.50;4991660;28;20026;-62
2022/07/09 00:50:42;;;;;;;55.38;7.32;;;;;;;13.18;100.00;155502.31;4990312;28;20038;-62
2022/07/09 00:53:14;;;;;;;20.58;6.38;;;;;;;13.15;100.00;155847.69;4991319;28;20098;-62
2022/07/09 00:55:40;;;;;;;8.35;5.50;;;;;;;13.13;100.00;155488.28;4990229;28;20539;-62
2022/07/09 00:58:07;;;;;;;101.28;9.20;;;;;;;13.09;100.00;155125.06;4991474;28;20113;-62
2022/07/09 01:00:34;;;;;;;125.90;8.15;;;;;;;13.06;100.00;155117.38;4989948;28;20042;-61
2022/07/09 01:03:00;;;;;;;124.68;8.35;;;;;;;13.01;100.00;155104.63;4991294;28;20605;-61
2022/07/09 01:05:25;;;;;;;18.02;3.75;;;;;;;13.01;100.00;155458.84;4989921;28;20053;-61
2022/07/09 01:07:51;;;;;;;88.97;8.05;;;;;;;12.96;100.00;155801.56;5001379;28;20072;-61
2022/07/09 01:10:17;;;;;;;9.23;5.20;;;;;;;12.91;100.00;156851.47;5009399;28;20076;-60
2022/07/09 01:12:44;;;;;;;33.58;5.22;;;;;;;12.85;100.00;157190.22;5011184;28;20057;-60
2022/07/09 01:15:10;;;;;;;48.90;8.27;;;;;;;12.82;100.00;156475.28;5009056;28;20045;-62
2022/07/09 01:17:39;;;;;;;115.00;9.95;;;;;;;12.81;100.00;155408.94;5011099;28;20022;-62
2022/07/09 01:20:06;;;;;;;98.53;8.77;;;;;;;12.80;100.00;154698.22;5007616;28;20049;-62
2022/07/09 01:22:32;;;;;;;175.05;12.98;;;;;;;12.78;100.00;155047.16;5010718;28;20034;-62
2022/07/09 01:25:00;;;;;;;66.88;6.28;;;;;;;12.75;100.00;156810.16;5009209;28;20045;-62
2022/07/09 01:27:25;;;;;;;109.03;9.98;;;;;;;12.64;100.00;160238.56;5010680;28;20038;-61
2022/07/09 01:29:50;;;;;;;135.85;12.13;;;;;;;12.57;100.00;162967.50;5009196;28;20048;-62
2022/07/09 01:32:16;;;;;;;80.63;9.63;;;;;;;12.51;100.00;163835.16;5010687;28;20026;-62
2022/07/09 01:34:42;;;;;;;71.85;8.38;;;;;;;12.47;100.00;163824.38;5007757;28;20034;-62
2022/07/09 01:37:07;;;;;;;9.13;8.30;;;;;;;12.44;100.00;163817.59;4990681;28;20027;-61
2022/07/09 01:39:33;;;;;;;52.47;7.88;;;;;;;12.44;100.00;163680.50;4989946;28;20054;-61
2022/07/09 01:41:59;;;;;;;21.67;6.95;;;;;;;12.43;100.00;163129.31;4991246;28;20029;-62
2022/07/09 01:44:25;;;;;;;7.63;6.85;;;;;;;12.42;100.00;162323.41;5023562;28;20030;-61
2022/07/09 01:46:50;;;;;;;11.38;9.20;;;;;;;12.42;100.00;160725.78;4993489;28;20096;-61
2022/07/09 01:49:16;;;;;;;14.68;9.32;;;;;;;12.42;100.00;158288.97;4994732;28;20038;-61
2022/07/09 01:51:41;;;;;;;7.72;6.97;;;;;;;12.43;100.00;156376.09;4993131;28;20038;-62
2022/07/09 01:54:07;;;;;;;147.82;13.20;;;;;;;12.42;100.00;155666.94;4994512;28;20022;-61
2022/07/09 01:56:33;;;;;;;79.82;8.27;;;;;;;12.37;100.00;156007.97;4993655;28;20490;-62
2022/07/09 01:58:58;;;;;;;6.07;5.45;;;;;;;12.30;100.00;158279.75;4994602;28;20101;-61
2022/07/09 02:01:24;;;;;;;20.35;7.32;;;;;;;12.26;100.00;160344.34;4993104;28;20034;-62
2022/07/09 02:03:49;;;;;;;69.68;6.22;;;;;;;12.18;100.00;161979.47;5005494;28;20030;-61
2022/07/09 02:06:14;;;;;;;16.40;5.07;;;;;;;12.14;100.00;163469.28;5012323;28;20100;-61
2022/07/09 02:08:40;;;;;;;8.95;3.08;;;;;;;12.10;100.00;163727.09;5013926;28;20033;-61
2022/07/09 02:11:05;;;;;;;5.00;3.60;;;;;;;12.08;100.00;163721.69;5012246;28;20092;-62
2022/07/09 02:13:31;;;;;;;6.28;3.83;;;;;;;12.06;100.00;163666.34;5013927;28;20032;-61
2022/07/09 02:15:56;;;;;;;60.72;5.15;;;;;;;12.04;100.00;163427.06;5012767;28;20038;-61
2022/07/09 02:18:21;;;;;;;122.47;8.02;;;;;;;11.83;100.00;163656.75;5013952;28;20080;-61
2022/07/09 02:20:47;;;;;;;31.85;5.10;;;;;;;11.91;100.00;163679.72;5012329;28;20049;-62
2022/07/09 02:23:12;;;;;;;43.33;6.28;;;;;;;11.83;100.00;163658.16;5013697;28;20017;-61
2022/07/09 02:25:38;;;;;;;42.20;6.00;;;;;;;11.79;100.00;163645.97;5012276;28;20718;-61
2022/07/09 02:28:04;;;;;;;8.43;6.47;;;;;;;11.74;100.00;163635.16;5013081;28;20493;-61
2022/07/09 02:30:29;;;;;;;15.73;7.60;;;;;;;11.64;100.00;163608.16;5012428;28;20050;-61
2022/07/09 02:32:55;;;;;;;8.57;7.78;;;;;;;11.78;100.00;163643.28;5010187;28;20077;-62
2022/07/09 02:35:20;;;;;;;9.85;8.85;;;;;;;11.80;100.00;163648.69;4992314;28;20047;-61
2022/07/09 02:37:46;;;;;;;13.43;9.60;;;;;;;11.82;100.00;161935.72;4994076;28;20498;-61
2022/07/09 02:40:11;;;;;;;19.02;9.82;;;;;;;11.90;100.00;158538.66;4992504;28;20053;-61
2022/07/09 02:42:38;;;;;;;10.10;9.10;;;;;;;11.94;100.00;156255.00;4993936;28;20026;-61
2022/07/09 02:45:04;;;;;;;15.20;11.57;;;;;;;11.83;100.00;155167.22;5010532;28;20482;-61
2022/07/09 02:47:29;;;;;;;23.10;11.73;;;;;;;12.02;100.00;153093.19;5013280;28;20034;-63
2022/07/09 02:49:56;;;;;;;14.23;10.65;;;;;;;12.05;100.00;151333.63;5011739;28;20044;-62
2022/07/09 02:52:21;;;;;;;17.65;12.90;;;;;;;12.09;100.00;149927.91;5011625;28;20021;-60
2022/07/09 02:54:47;;;;;;;8.95;7.90;;;;;;;12.09;100.00;149574.69;5011636;28;20033;-60
2022/07/09 02:57:13;;;;;;;9.40;8.48;;;;;;;12.11;100.00;150286.09;4992268;28;20022;-60
2022/07/09 02:59:38;;;;;;;8.98;8.18;;;;;;;12.13;100.00;150291.03;4992599;28;20544;-60
2022/07/09 03:02:04;;;;;;;7.50;6.85;;;;;;;11.99;100.00;150258.91;4993753;28;20026;-60
2022/07/09 03:04:29;;;;;;;9.60;6.93;;;;;;;12.00;100.00;151321.19;4992592;28;20073;-60
2022/07/09 03:06:54;;;;;;;9.65;7.78;;;;;;;12.11;100.00;153113.31;4993525;28;20024;-60
2022/07/09 03:09:20;;;;;;;9.00;7.05;;;;;;;12.12;100.00;153822.97;4995645;28;20026;-60
2022/07/09 03:11:45;;;;;;;7.93;6.68;;;;;;;12.08;100.00;154874.94;5011381;28;20041;-60
2022/07/09 03:14:10;;;;;;;8.55;7.15;;;;;;;12.07;100.00;155579.72;5012938;28;20499;-60
2022/07/09 03:16:36;;;;;;;10.80;8.65;;;;;;;12.06;100.00;156992.28;5011916;28;20595;-60
2022/07/09 03:19:01;;;;;;;10.57;9.05;;;;;;;12.06;100.00;157827.16;5012352;28;20041;-60
2022/07/09 03:21:26;;;;;;;9.02;7.63;;;;;;;12.01;100.00;159955.81;5011507;28;20049;-61
2022/07/09 03:23:52;;;;;;;9.43;8.07;;;;;;;11.94;100.00;162809.09;5012960;28;20033;-61
2022/07/09 03:26:17;;;;;;;42.53;10.38;;;;;;;11.93;100.00;163682.41;5002544;28;20046;-62
2022/07/09 03:28:42;;;;;;;37.33;9.10;;;;;;;11.90;100.00;163675.69;4993023;28;20058;-62
2022/07/09 03:31:08;;;;;;;21.83;10.75;;;;;;;11.87;100.00;163667.59;4991858;28;20038;-62
2022/07/09 03:33:33;;;;;;;28.60;10.00;;;;;;;11.89;100.00;163672.97;4993196;28;20033;-61
2022/07/09 03:35:59;;;;;;;44.78;11.43;;;;;;;11.87;100.00;163668.94;4991350;28;20038;-61
2022/07/09 03:38:24;;;;;;;35.92;11.50;;;;;;;11.88;100.00;163671.63;4993231;28;20034;-61
2022/07/09 03:40:50;;;;;;;27.75;12.23;;;;;;;11.82;100.00;163654.06;4991858;28;20049;-62
2022/07/09 03:43:16;;;;;;;19.65;14.73;;;;;;;12.00;100.00;162769.91;5006828;28;20030;-61
2022/07/09 03:45:41;;;;;;;22.48;15.15;;;;;;;12.05;100.00;160084.00;4992643;28;20046;-61
2022/07/09 03:48:07;;;;;;;18.08;14.93;;;;;;;12.11;100.00;156296.22;4992556;28;20026;-60
2022/07/09 03:50:32;;;;;;;17.73;15.30;;;;;;;12.22;100.00;152433.94;4991065;28;20049;-61
2022/07/09 03:52:57;;;;;;;20.45;15.27;;;;;;;12.34;100.00;148221.81;4992946;28;20481;-61
2022/07/09 03:55:23;;;;;;;18.90;15.48;;;;;;;12.41;100.00;145059.34;4991302;28;20382;-61
2022/07/09 03:57:49;;;;;;;19.10;16.08;;;;;;;12.46;100.00;143659.41;4992602;28;20033;-61
2022/07/09 04:00:14;;;;;;;25.27;16.48;;;;;;;12.53;100.00;142264.31;5003305;28;20125;-61
2022/07/09 04:02:40;;;;;;;23.20;16.83;;;;;;;12.63;100.00;140170.81;5012090;28;20405;-61
2022/07/09 04:05:06;;;;;;;21.25;16.33;;;;;;;12.55;100.00;137684.47;4997102;28;20105;-61
2022/07/09 04:07:32;;;;;;;21.33;15.98;;;;;;;12.84;100.00;135280.09;4992127;28;20022;-61
2022/07/09 04:09:57;;;;;;;22.40;15.27;;;;;;;12.90;100.00;133883.84;4991233;28;20042;-61
2022/07/09 04:12:22;;;;;;;16.90;13.93;;;;;;;12.94;100.00;132835.66;4992045;28;20218;-58
2022/07/09 04:14:48;;;;;;;22.63;16.70;;;;;;;12.91;100.00;131771.47;5001900;28;20042;-57
2022/07/09 04:17:13;;;;;;;17.83;15.07;;;;;;;13.12;100.00;130759.03;5011180;28;20033;-57
2022/07/09 04:19:38;;;;;;;18.23;16.23;;;;;;;13.21;100.00;129369.59;4992267;28;20394;-56
2022/07/09 04:22:04;;;;;;;21.25;15.95;;;;;;;13.30;100.00;127628.13;4992222;28;20021;-57
2022/07/09 04:24:30;;;;;;;22.77;14.55;;;;;;;13.38;100.00;126938.69;4990480;28;20598;-57
2022/07/09 04:26:55;;;;;;;22.20;13.82;;;;;;;13.31;100.00;126574.28;5008167;28;20553;-57
2022/07/09 04:29:21;;;;;;;23.65;13.13;;;;;;;13.47;100.00;126957.41;5006357;28;20112;-57
2022/07/09 04:31:46;;;;;;;15.77;14.20;;;;;;;13.53;100.00;126969.84;5010359;28;20534;-57
2022/07/09 04:34:11;;;;;;;23.15;14.40;;;;;;;13.59;100.00;126630.16;4994113;28;20022;-57
2022/07/09 04:36:37;;;;;;;23.23;14.70;;;;;;;13.64;100.00;125584.31;4990812;28;20624;-57
2022/07/09 04:39:02;;;;;;;15.88;13.35;;;;;;;13.71;100.00;124892.53;4991902;28;20045;-57
2022/07/09 04:41:28;;;;;;;19.80;14.07;;;;;;;13.81;100.00;123856.88;4992940;28;20124;-56
2022/07/09 04:43:54;;;;;;;22.27;14.63;;;;;;;13.92;100.00;122119.25;4997306;28;20406;-57
2022/07/09 04:46:21;;;;;;;18.42;15.20;;;;;;;14.01;100.00;120728.63;4999890;28;20057;-57
2022/07/09 04:48:46;;;;;;;23.42;17.77;;;;;;;14.20;100.00;118302.28;4991586;28;20094;-58
2022/07/09 04:51:12;;;;;;;19.65;13.73;;;;;;;14.37;100.00;116926.13;4988892;28;20038;-57
2022/07/09 04:53:37;;;;;;;20.33;13.88;;;;;;;14.49;100.00;116244.56;4990529;28;20026;-57
2022/07/09 04:56:02;;;;;;;17.92;13.55;;;;;;;14.58;100.00;116614.28;4999889;28;20100;-57
2022/07/09 04:58:29;;;;;;;16.58;14.00;;;;;;;14.64;100.00;117679.38;5011451;28;20032;-57
2022/07/09 05:00:54;;;;;;;19.67;14.15;;;;;;;14.71;100.00;118748.78;5008008;28;20034;-57
2022/07/09 05:03:20;;;;;;;21.58;14.35;;;;;;;14.64;100.00;119439.28;5010305;28;20481;-57
2022/07/09 05:05:45;;;;;;;16.92;14.18;;;;;;;14.81;100.00;120176.78;5009437;28;20045;-57
2022/07/09 05:08:10;;;;;;;23.55;14.10;;;;;;;14.90;100.00;120546.72;5009709;28;20080;-57
2022/07/09 05:10:36;;;;;;;16.30;12.90;;;;;;;15.00;100.00;121621.59;5007363;28;20057;-56
2022/07/09 05:13:01;;;;;;;18.50;14.77;;;;;;;15.14;100.00;122353.44;4996727;28;20026;-57
2022/07/09 05:15:27;;;;;;;20.35;14.32;;;;;;;15.25;100.00;122374.38;4999198;28;20121;-57
2022/07/09 05:17:52;;;;;;;17.88;15.98;;;;;;;15.36;100.00;122749.06;5010026;28;20025;-57
2022/07/09 05:20:18;;;;;;;16.58;14.43;;;;;;;15.48;100.00;123125.88;5010637;28;20042;-57
2022/07/09 05:22:43;;;;;;;19.38;15.07;;;;;;;15.58;100.00;124202.78;5013852;28;20049;-57
2022/07/09 05:25:09;;;;;;;16.83;14.88;;;;;;;15.67;100.00;126693.09;5012842;28;20033;-56
2022/07/09 05:27:44;;;;;;;16.17;13.98;;;;;;;15.76;100.00;131661.03;5014383;28;20050;-57
2022/07/09 05:30:10;;;;;;;26.33;15.25;;;;;;;15.79;100.00;138040.06;5012041;28;20050;-57
2022/07/09 05:32:36;;;;;;;14.88;13.00;;;;;;;15.83;100.00;145496.69;5013935;28;20485;-57
2022/07/09 05:35:01;;;;;;;23.10;15.57;;;;;;;15.83;100.00;152246.56;5013123;28;20045;-57
2022/07/09 05:37:26;;;;;;;21.15;15.45;;;;;;;15.86;100.00;155099.53;5011979;28;20037;-57
2022/07/09 05:39:52;;;;;;;18.20;15.80;;;;;;;15.99;100.00;157979.41;5012671;28;20038;-57
2022/07/09 05:42:17;;;;;;;16.92;15.07;;;;;;;15.97;100.00;162855.59;5014101;28;20032;-57
2022/07/09 05:44:42;;;;;;;25.48;16.45;;;;;;;16.08;100.00;162160.75;4993574;28;20030;-57
2022/07/09 05:47:08;;;;;;;17.45;15.10;;;;;;;16.23;100.00;156970.41;4994182;28;20478;-57
2022/07/09 05:49:33;;;;;;;16.90;15.15;;;;;;;16.23;100.00;164550.13;5006219;28;20057;-57
2022/07/09 05:51:58;;;;;;;17.88;13.90;;;;;;;16.38;100.00;164848.69;4993672;28;20030;-57
2022/07/09 05:54:24;;;;;;;16.67;14.43;;;;;;;16.34;100.00;164840.53;4993643;28;20022;-57
2022/07/09 05:56:51;;;;;;;17.33;15.52;;;;;;;16.58;100.00;164901.47;4992923;28;20035;-57
2022/07/09 05:59:16;;;;;;;18.33;14.85;;;;;;;16.62;100.00;164912.34;4994415;28;20023;-57
2022/07/09 06:01:42;;;;;;;18.95;13.05;;;;;;;16.58;100.00;164901.47;4993629;28;20042;-57
2022/07/09 06:04:08;;;;;;;21.17;13.57;;;;;;;16.63;100.00;164915.06;5010116;28;20026;-57
2022/07/09 06:06:34;;;;;;;15.00;13.32;;;;;;;16.61;100.00;164910.97;5012521;28;20048;-57
2022/07/09 06:08:59;;;;;;;17.00;14.48;;;;;;;16.71;100.00;164936.75;4999170;28;20022;-56
2022/07/09 06:11:24;;;;;;;17.30;13.75;;;;;;;16.67;100.00;164925.88;4992680;28;20038;-57
2022/07/09 06:13:50;;;;;;;21.63;13.57;;;;;;;16.54;100.00;164890.66;4994598;28;20030;-56
2022/07/09 06:16:15;;;;;;;14.18;12.38;;;;;;;16.71;100.00;164935.38;5008868;28;20042;-56
2022/07/09 06:18:40;;;;;;;19.13;12.20;;;;;;;16.96;100.00;165001.78;5012505;28;20036;-56
2022/07/09 06:21:06;;;;;;;15.32;12.13;;;;;;;16.91;100.00;164988.22;5007053;28;20049;-57
2022/07/09 06:23:31;;;;;;;16.10;12.70;;;;;;;16.68;100.00;164928.59;5012271;28;20038;-57
2022/07/09 06:25:57;;;;;;;15.63;12.90;;;;;;;16.85;100.00;164971.97;5012073;28;20429;-57
2022/07/09 06:28:22;;;;;;;13.20;11.95;;;;;;;16.89;100.00;164982.78;5013226;28;20054;-57
2022/07/09 06:30:47;;;;;;;18.10;12.27;;;;;;;16.92;100.00;164990.94;5010866;28;20041;-57
2022/07/09 06:33:13;;;;;;;12.77;11.35;;;;;;;17.16;100.00;165053.31;4994064;28;20436;-56
2022/07/09 06:35:39;;;;;;;16.83;13.30;;;;;;;17.47;100.00;165134.59;4992785;28;20532;-56
2022/07/09 06:38:04;;;;;;;14.10;10.57;;;;;;;17.47;100.00;165134.59;4993668;28;20038;-57
2022/07/09 06:40:29;;;;;;;14.63;11.25;;;;;;;17.74;100.00;165206.44;4992007;28;20042;-57
2022/07/09 06:42:55;;;;;;;12.63;10.32;;;;;;;17.81;100.00;165224.06;4994019;28;20022;-56
2022/07/09 06:45:20;;;;;;;17.95;12.10;;;;;;;17.72;100.00;165202.38;4992207;28;20494;-57
2022/07/09 06:47:45;;;;;;;18.17;11.05;;;;;;;17.73;100.00;165205.09;4993298;28;20088;-57
2022/07/09 06:50:11;;;;;;;15.90;10.73;;;;;;;17.81;100.00;165224.06;4992104;28;20043;-57
2022/07/09 06:52:36;;;;;;;14.00;11.15;;;;;;;17.79;100.00;165218.63;4993617;28;20023;-57
2022/07/09 06:55:02;;;;;;;16.63;11.32;;;;;;;17.74;100.00;165207.81;4991847;28;20512;-57
2022/07/09 06:57:28;;;;;;;23.02;10.75;;;;;;;17.93;100.00;165256.59;4993598;28;20057;-56
2022/07/09 06:59:54;;;;;;;15.48;10.75;;;;;;;18.14;100.00;165310.84;4992212;28;20034;-57
2022/07/09 07:02:19;;;;;;;10.73;8.93;;;;;;;18.70;100.00;165460.03;4991733;28;20101;-57
2022/07/09 07:04:45;;;;;;;14.55;10.15;;;;;;;19.26;100.00;165606.56;4992198;28;20077;-57
2022/07/09 07:07:11;;;;;;;13.30;8.63;;;;;;;19.63;100.00;165704.25;4993184;28;20030;-56
2022/07/09 07:09:36;;;;;;;16.30;10.63;;;;;;;19.92;100.00;165780.28;4991595;28;20023;-57
2022/07/09 07:12:02;;;;;;;13.43;8.82;;;;;;;20.10;100.00;165826.44;4993257;28;20033;-57
2022/07/09 07:14:27;;;;;;;12.55;7.15;;;;;;;19.99;100.00;165797.94;4993167;28;20026;-57
2022/07/09 07:16:53;;;;;;;6.97;6.25;;;;;;;20.09;100.00;165825.09;4991640;28;20093;-57
2022/07/09 07:19:20;;;;;;;14.88;8.95;;;;;;;20.28;100.00;165875.34;4993110;28;20081;-57
2022/07/09 07:21:46;;;;;;;11.23;8.40;;;;;;;20.48;100.00;165926.91;4991856;28;20134;-57
2022/07/09 07:24:11;;;;;;;7.18;6.47;;;;;;;20.52;100.00;165937.72;4992638;28;20018;-57
2022/07/09 07:26:37;;;;;;;9.43;6.78;;;;;;;20.42;100.00;165910.63;4991709;28;20042;-57
2022/07/09 07:29:03;;;;;;;8.52;5.72;;;;;;;20.41;100.00;165907.88;4992454;28;20069;-56
2022/07/09 07:31:28;;;;;;;5.07;4.65;;;;;;;20.31;100.00;165882.09;4991368;28;20069;-57
2022/07/09 07:33:53;;;;;;;5.18;4.63;;;;;;;20.10;100.00;165826.44;4993030;28;20018;-57
2022/07/09 07:36:19;;;;;;;5.82;4.13;;;;;;;20.04;100.00;165811.50;4992322;28;20505;-56
2022/07/09 07:38:47;;;;;;;7.25;4.80;;;;;;;20.15;100.00;165840.00;4992384;28;20433;-57
2022/07/09 07:41:12;;;;;;;;;;;;;;;20.43;100.00;165914.66;4991611;28;20111;-57
2022/07/09 07:43:38;;;;;;;7.63;4.35;;;;;;;20.63;100.00;165964.91;4992032;28;19918;-57
2022/07/09 07:46:04;;;;;;;5.95;4.13;;;;;;;20.69;100.00;165981.19;5000300;28;20072;-57
2022/07/09 07:48:30;;;;;;;10.35;4.63;;;;;;;20.71;100.00;165986.63;5012227;28;20553;-56
2022/07/09 07:50:56;;;;;;;6.95;4.90;;;;;;;20.79;100.00;166008.41;5010660;28;20124;-57
2022/07/09 07:53:21;;;;;;;8.27;4.35;;;;;;;20.81;100.00;166013.84;5011587;28;20114;-57
2022/07/09 07:55:47;;;;;;;7.43;3.80;;;;;;;20.88;100.00;166032.84;5010768;28;20076;-57
2022/07/09 07:58:12;;;;;;;8.10;3.80;;;;;;;21.00;100.00;166062.72;5011840;28;20025;-58
2022/07/09 08:00:37;;;;;;;6.28;3.97;;;;;;;20.79;100.00;166008.41;5007187;28;20046;-57
2022/07/09 08:03:03;;;;;;;4.30;3.60;;;;;;;20.70;100.00;165983.91;4994852;28;20018;-57
2022/07/09 08:05:28;;;;;;;8.98;3.83;;;;;;;20.79;100.00;166007.03;4999597;28;20490;-57
2022/07/09 08:07:54;;;;;;;7.32;3.33;;;;;;;21.03;100.00;166070.88;4991995;28;20117;-57
2022/07/09 08:10:19;;;;;;;5.63;3.65;;;;;;;21.41;100.00;166171.31;4990431;28;20409;-57
2022/07/09 08:12:44;;;;;;;5.65;3.92;;;;;;;21.79;100.00;166271.91;4992140;28;20027;-56
2022/07/09 08:15:10;;;;;;;8.30;3.70;;;;;;;21.91;100.00;166303.16;4990357;28;20042;-57
2022/07/09 08:17:35;;;;;;;6.82;4.15;;;;;;;22.02;100.00;166331.66;4992018;28;20030;-57
2022/07/09 08:20:01;;;;;;;4.95;3.85;;;;;;;21.87;100.00;166293.63;4990587;28;20038;-57
2022/07/09 08:22:26;;;;;;;4.97;3.50;;;;;;;21.92;100.00;166305.88;4991698;28;20034;-57
2022/07/09 08:24:51;;;;;;;5.18;4.00;;;;;;;21.73;100.00;166255.59;4990655;28;20398;-57
2022/07/09 08:27:17;;;;;;;3.42;2.80;;;;;;;21.52;100.00;166201.22;4991391;28;20030;-57
2022/07/09 08:29:43;;;;;;;3.45;2.88;;;;;;;21.54;100.00;166206.69;5022172;28;20042;-58
2022/07/09 08:32:08;;;;;;;1.90;1.80;;;;;;;21.77;100.00;166265.09;4991517;28;20544;-57
2022/07/09 08:34:33;;;;;;;4.10;3.13;;;;;;;21.43;100.00;166176.78;4990494;28;20436;-57
2022/07/09 08:36:59;;;;;;;6.35;2.20;;;;;;;21.52;100.00;166201.22;4991748;28;20052;-57
2022/07/09 08:39:24;;;;;;;3.47;2.53;;;;;;;21.58;100.00;166216.22;4991072;28;20029;-57
2022/07/09 08:41:50;;;;;;;2.83;2.45;;;;;;;21.54;100.00;166206.69;4990331;28;20043;-56
2022/07/09 08:44:19;;;;;;;3.55;2.33;;;;;;;21.48;100.00;166189.00;4990960;28;20041;-57
2022/07/09 08:46:45;;;;;;;3.00;2.42;;;;;;;21.32;100.00;166146.91;4995240;28;20042;-57
2022/07/09 08:49:11;;;;;;;4.65;3.00;;;;;;;21.26;100.00;166130.63;4991190;28;20026;-57
2022/07/09 08:51:37;;;;;;;2.78;2.17;;;;;;;21.21;100.00;166119.75;4997974;28;20077;-57
2022/07/09 08:54:03;;;;;;;4.88;2.55;;;;;;;21.15;100.00;166103.44;5010331;28;20030;-57
2022/07/09 08:56:28;;;;;;;4.85;2.80;;;;;;;21.17;100.00;166108.91;4992989;28;20524;-57
2022/07/09 08:58:53;;;;;;;2.53;2.33;;;;;;;21.09;100.00;166087.16;4991539;28;20589;-56
2022/07/09 09:01:19;;;;;;;5.00;2.53;;;;;;;21.23;100.00;166123.78;5004608;28;20034;-57
2022/07/09 09:03:45;;;;;;;2.05;1.83;;;;;;;21.23;100.00;166125.19;5010683;28;20370;-57
2022/07/09 09:06:12;;;;;;;3.78;2.47;;;;;;;21.47;100.00;166186.28;5009228;28;20041;-57
2022/07/09 09:08:39;;;;;;;3.70;3.28;;;;;;;21.71;100.00;166250.16;5010492;28;20539;-57
2022/07/09 09:11:13;;;;;;;3.28;2.42;;;;;;;21.79;100.00;166270.56;5009349;28;20049;-57
2022/07/09 09:13:46;;;;;;;3.00;2.60;;;;;;;22.02;100.00;166333.06;5011002;28;20113;-57
2022/07/09 09:16:13;;;;;;;5.35;2.53;;;;;;;22.05;100.00;166339.84;5008587;28;20040;-58
2022/07/09 09:18:43;;;;;;;6.57;3.63;;;;;;;22.08;100.00;166347.97;5010947;28;20508;-57
2022/07/09 09:21:10;;;;;;;5.00;3.17;;;;;;;22.15;100.00;166366.97;5008965;28;20042;-57
2022/07/09 09:23:43;;;;;;;7.10;3.03;;;;;;;22.23;100.00;166386.06;5010517;28;20033;-57
2022/07/09 09:26:17;;;;;;;4.07;3.08;;;;;;;22.05;100.00;166339.84;5009161;28;20042;-57
2022/07/09 09:28:49;;;;;;;3.67;3.00;;;;;;;22.06;100.00;166342.56;5010516;28;20104;-57
2022/07/09 09:31:35;;;;;;;2.80;2.60;;;;;;;21.91;100.00;166303.16;5004170;28;20043;-57
2022/07/09 09:34:06;;;;;;;6.10;3.65;;;;;;;21.72;100.00;166252.88;4991444;28;20444;-57
2022/07/09 09:36:34;;;;;;;6.03;3.20;;;;;;;21.57;100.00;166213.50;5005432;28;20038;-57
2022/07/09 09:39:18;;;;;;;4.47;3.60;;;;;;;21.50;100.00;166195.78;4993743;28;20022;-57
2022/07/09 09:41:49;;;;;;;4.20;2.83;;;;;;;21.33;100.00;166149.63;4989642;28;20038;-57
2022/07/09 09:44:25;;;;;;;9.95;3.63;;;;;;;21.23;100.00;166123.78;4990475;28;20030;-57
2022/07/09 09:46:51;;;;;;;5.95;3.17;;;;;;;21.13;100.00;166098.00;4995408;28;20132;-56
2022/07/09 09:49:17;;;;;;;5.13;3.25;;;;;;;20.99;100.00;166061.38;5010398;28;20025;-57
2022/07/09 09:52:01;;;;;;;4.70;3.35;;;;;;;20.83;100.00;166019.25;5008833;28;20038;-57
2022/07/09 09:54:27;;;;;;;6.80;4.13;;;;;;;20.89;100.00;166035.53;5009226;28;20022;-58
2022/07/09 09:56:54;;;;;;;4.22;3.53;;;;;;;20.88;100.00;166031.47;5010918;28;20034;-57
2022/07/09 09:59:20;;;;;;;8.73;2.97;;;;;;;20.74;100.00;165994.78;5009889;28;20084;-57
2022/07/09 10:01:46;;;;;;;6.70;3.45;;;;;;;20.81;100.00;166013.84;4990098;28;20498;-57
2022/07/09 10:04:13;;;;;;;5.13;2.15;;;;;;;21.11;100.00;166092.56;4991072;28;20030;-57
2022/07/09 10:06:40;;;;;;;4.43;2.53;;;;;;;21.35;100.00;166155.03;5006307;28;20044;-57
2022/07/09 10:09:07;;;;;;;2.83;2.47;;;;;;;21.43;100.00;166176.78;5020940;28;20041;-57
2022/07/09 10:11:47;;;;;;;5.22;2.63;;;;;;;21.44;100.00;166178.16;4996844;28;20409;-56
2022/07/09 10:14:24;;;;;;;4.50;2.55;;;;;;;21.64;100.00;166231.13;5012026;28;20037;-57
2022/07/09 10:16:51;;;;;;;4.35;3.60;;;;;;;21.80;100.00;166274.63;5012652;28;20132;-56
2022/07/09 10:19:30;;;;;;;4.28;2.72;;;;;;;21.92;100.00;166304.53;5013690;28;20028;-57
2022/07/09 10:21:57;;;;;;;4.47;3.10;;;;;;;22.05;100.00;166339.84;5010837;28;20042;-57
2022/07/09 10:24:27;;;;;;;5.05;2.88;;;;;;;22.24;100.00;166388.72;5014074;28;20477;-57
2022/07/09 10:27:11;;;;;;;6.72;3.08;;;;;;;22.27;100.00;166396.91;4991767;28;20053;-57
2022/07/09 10:29:53;;;;;;;4.22;2.80;;;;;;;22.38;100.00;166425.44;4973287;28;20041;-57
2022/07/09 10:32:29;;;;;;;2.75;2.20;;;;;;;22.33;100.00;166414.59;4975788;28;20117;-57
2022/07/09 10:34:59;;;;;;;5.40;2.65;;;;;;;22.24;100.00;166388.72;4977762;28;20042;-57
2022/07/09 10:37:40;;;;;;;4.72;2.30;;;;;;;22.35;100.00;166419.97;4994053;28;20389;-57
2022/07/09 10:40:15;;;;;;;3.58;1.80;;;;;;;22.55;100.00;166470.31;4992814;28;20169;-56
2022/07/09 10:42:43;;;;;;;2.15;1.90;;;;;;;22.76;100.00;166527.38;4994252;28;20501;-57
2022/07/09 10:45:17;;;;;;;2.70;2.20;;;;;;;22.95;100.00;166577.69;4993120;28;20046;-57
2022/07/09 10:47:44;;;;;;;2.22;1.70;;;;;;;23.12;100.00;166622.53;4994067;28;20058;-57
2022/07/09 10:50:09;;;;;;;7.25;3.17;;;;;;;23.14;100.00;166626.63;4992416;28;20042;-57
2022/07/09 10:52:35;;;;;;;5.40;1.92;;;;;;;23.21;100.00;166644.31;4993773;28;20023;-57
2022/07/09 10:55:00;;;;;;;6.90;2.17;;;;;;;23.11;100.00;166619.84;5022148;28;20049;-57
2022/07/09 10:57:26;;;;;;;4.35;2.15;;;;;;;22.92;100.00;166569.56;4993990;28;20030;-57
2022/07/09 10:59:51;;;;;;;7.43;1.90;;;;;;;22.77;100.00;166530.13;4992355;28;20035;-57
2022/07/09 11:02:26;;;;;;;2.42;1.65;;;;;;;22.74;100.00;166522.00;4993510;28;20145;-57
2022/07/09 11:04:52;;;;;;;2.90;1.45;;;;;;;22.92;100.00;166568.16;4996398;28;20040;-57
2022/07/09 11:07:22;;;;;;;5.82;2.95;;;;;;;23.07;100.00;166608.94;5011028;28;20392;-57